Time;durP1;ratioP1;P1;durP2;ratioP2;P2;SDS_P1;SDS_P2;PMS_P1;PMS_P2;Temp;Humidity;BMP_temperature;BMP_pressure;BME280_temperature;BME280_humidity;BME280_pressure;Samples;Min_cycle;Max_cycle;Signal;HPM_P1;HPM_P2
2022/08/23 00:01:42;;;;;;;5.82;3.95;;;19.90;99.90;;;;;;5016713;28;20245;-67
2022/08/23 00:04:14;;;;;;;7.82;3.70;;;19.90;99.90;;;;;;4999249;28;20184;-67
2022/08/23 00:06:41;;;;;;;4.75;3.47;;;19.90;99.90;;;;;;5017145;28;20179;-67
2022/08/23 00:09:08;;;;;;;5.20;4.22;;;19.80;99.90;;;;;;5032098;28;20184;-67
2022/08/23 00:11:38;;;;;;;8.60;4.43;;;19.80;99.90;;;;;;5016650;28;20283;-67
2022/08/23 00:14:21;;;;;;;6.93;4.30;;;19.70;99.90;;;;;;5017070;28;20195;-67
2022/08/23 00:16:47;;;;;;;4.50;3.88;;;19.70;99.90;;;;;;5017136;28;20183;-67
2022/08/23 00:19:15;;;;;;;4.88;3.70;;;19.60;99.90;;;;;;4999010;28;20191;-67
2022/08/23 00:21:43;;;;;;;6.70;3.92;;;19.60;99.90;;;;;;5016455;28;20220;-67
2022/08/23 00:24:11;;;;;;;6.30;4.07;;;19.60;99.90;;;;;;5016433;28;20175;-67
2022/08/23 00:27:03;;;;;;;7.07;3.80;;;19.60;99.90;;;;;;5016622;28;20176;-67
2022/08/23 00:29:51;;;;;;;5.30;4.15;;;19.40;99.90;;;;;;5016492;28;20243;-66
2022/08/23 00:32:23;;;;;;;5.50;4.13;;;19.30;99.90;;;;;;4998253;28;20204;-67
2022/08/23 00:34:49;;;;;;;5.95;4.30;;;19.20;99.90;;;;;;5016501;28;20219;-66
2022/08/23 00:37:17;;;;;;;5.28;3.90;;;19.10;99.90;;;;;;5016187;28;20188;-67
2022/08/23 00:39:43;;;;;;;6.40;4.15;;;19.10;99.90;;;;;;5016560;28;20172;-66
2022/08/23 00:47:44;;;;;;;5.78;4.00;;;19.00;99.90;;;;;;5016847;28;20175;-67
2022/08/23 00:50:31;;;;;;;8.32;4.68;;;19.00;99.90;;;;;;5016230;28;20176;-66
2022/08/23 00:53:22;;;;;;;7.45;4.30;;;19.00;99.90;;;;;;5015920;28;20219;-66
2022/08/23 00:55:53;;;;;;;5.35;4.00;;;19.00;99.90;;;;;;5016173;28;20647;-66
2022/08/23 00:58:21;;;;;;;7.47;4.57;;;18.90;99.90;;;;;;5016060;28;20174;-67
2022/08/23 01:00:49;;;;;;;8.05;4.65;;;18.90;99.90;;;;;;5015965;28;20169;-66
2022/08/23 01:03:17;;;;;;;10.23;4.13;;;18.80;99.90;;;;;;5015980;28;20215;-67
2022/08/23 01:05:53;;;;;;;5.82;4.05;;;18.80;99.90;;;;;;5015983;28;20172;-66
2022/08/23 01:08:22;;;;;;;7.28;4.40;;;18.70;99.90;;;;;;5015674;28;20526;-67
2022/08/23 01:10:58;;;;;;;5.63;4.20;;;18.70;99.90;;;;;;5015685;28;20178;-67
2022/08/23 01:13:31;;;;;;;5.60;4.10;;;18.60;99.90;;;;;;5016524;28;20199;-67
2022/08/23 01:16:02;;;;;;;6.15;4.70;;;18.50;99.90;;;;;;5016144;28;20231;-66
2022/08/23 01:18:29;;;;;;;6.63;4.72;;;18.50;99.90;;;;;;4998061;28;20229;-66
2022/08/23 01:20:59;;;;;;;4.95;3.83;;;18.40;99.90;;;;;;5015668;28;20187;-66
2022/08/23 01:23:39;;;;;;;7.63;4.40;;;18.30;99.90;;;;;;5015503;28;20200;-66
2022/08/23 01:26:06;;;;;;;5.55;3.95;;;18.30;99.90;;;;;;5015763;28;20170;-67
2022/08/23 01:28:32;;;;;;;7.25;4.60;;;18.30;99.90;;;;;;5015520;28;20179;-67
2022/08/23 01:30:58;;;;;;;8.82;4.68;;;18.30;99.90;;;;;;5030648;28;20661;-69
2022/08/23 01:33:24;;;;;;;5.88;4.53;;;18.20;99.90;;;;;;5015358;28;20195;-67
2022/08/23 01:35:53;;;;;;;7.25;4.55;;;18.10;99.90;;;;;;5015450;28;20229;-66
2022/08/23 01:38:19;;;;;;;5.32;4.50;;;18.00;99.90;;;;;;5015247;28;20195;-66
2022/08/23 01:40:46;;;;;;;7.07;4.35;;;18.10;99.90;;;;;;5014441;28;20180;-66
2022/08/23 01:43:13;;;;;;;5.57;4.50;;;18.00;99.90;;;;;;5015333;28;20212;-66
2022/08/23 01:45:39;;;;;;;7.10;4.40;;;18.00;99.90;;;;;;5015214;28;20179;-66
2022/08/23 01:48:05;;;;;;;7.45;4.63;;;17.90;99.90;;;;;;5015335;28;20715;-67
2022/08/23 01:50:32;;;;;;;6.45;4.90;;;17.90;99.90;;;;;;5015323;28;20208;-66
2022/08/23 01:52:58;;;;;;;7.40;4.32;;;17.80;99.90;;;;;;5015145;28;20273;-67
2022/08/23 01:55:24;;;;;;;5.43;4.53;;;17.70;99.90;;;;;;5015349;28;20175;-67
2022/08/23 01:57:54;;;;;;;6.30;4.38;;;17.70;99.90;;;;;;4997602;28;20203;-66
2022/08/23 02:00:22;;;;;;;4.95;4.15;;;17.70;99.90;;;;;;5015263;28;20243;-66
2022/08/23 02:02:48;;;;;;;6.20;4.07;;;17.70;99.90;;;;;;5014904;28;20290;-66
2022/08/23 02:05:15;;;;;;;9.00;5.30;;;17.60;99.90;;;;;;5015120;28;20195;-66
2022/08/23 02:07:41;;;;;;;6.03;4.93;;;17.50;99.90;;;;;;4997266;28;20234;-67
2022/08/23 02:10:08;;;;;;;4.72;4.25;;;17.50;99.90;;;;;;5015503;28;20168;-66
2022/08/23 02:12:34;;;;;;;4.95;4.40;;;17.40;99.90;;;;;;5015971;28;20199;-67
2022/08/23 02:15:00;;;;;;;8.25;4.75;;;17.30;99.90;;;;;;4998298;28;20176;-66
2022/08/23 02:17:26;;;;;;;6.45;5.03;;;17.20;99.90;;;;;;5015158;28;20536;-67
2022/08/23 02:19:54;;;;;;;5.75;4.47;;;17.20;99.90;;;;;;5014850;28;20188;-67
2022/08/23 02:22:19;;;;;;;6.45;4.60;;;17.20;99.90;;;;;;4996604;28;20226;-67
2022/08/23 02:24:46;;;;;;;5.88;5.05;;;17.20;99.90;;;;;;5014788;28;20176;-67
2022/08/23 02:27:18;;;;;;;6.70;4.93;;;17.20;99.90;;;;;;5015497;28;20179;-66
2022/08/23 02:29:45;;;;;;;8.90;4.35;;;17.20;99.90;;;;;;5014922;28;20156;-66
2022/08/23 02:32:14;;;;;;;7.85;4.95;;;17.10;99.90;;;;;;5014820;28;20203;-67
2022/08/23 02:34:41;;;;;;;6.85;4.30;;;17.10;99.90;;;;;;4997373;28;20667;-67
2022/08/23 02:37:08;;;;;;;7.03;4.65;;;17.10;99.90;;;;;;5014440;28;20191;-67
2022/08/23 02:39:35;;;;;;;10.27;4.82;;;17.00;99.90;;;;;;5014883;28;20642;-66
2022/08/23 02:42:01;;;;;;;6.85;4.72;;;17.00;99.90;;;;;;4997221;28;20564;-67
2022/08/23 02:44:27;;;;;;;7.22;4.93;;;16.90;99.90;;;;;;5017034;28;20171;-68
2022/08/23 02:46:53;;;;;;;5.75;4.40;;;16.90;99.90;;;;;;5015113;28;20175;-68
2022/08/23 02:49:20;;;;;;;6.95;5.20;;;17.00;99.90;;;;;;5014556;28;20183;-67
2022/08/23 02:51:46;;;;;;;8.63;4.85;;;16.90;99.90;;;;;;4996859;28;20196;-68
2022/08/23 02:54:12;;;;;;;6.75;5.35;;;16.90;99.90;;;;;;5014284;28;20661;-67
2022/08/23 02:56:38;;;;;;;7.60;5.15;;;16.90;99.90;;;;;;4996694;28;20340;-68
2022/08/23 02:59:05;;;;;;;8.15;5.20;;;16.80;99.90;;;;;;5014117;28;20168;-68
2022/08/23 03:01:34;;;;;;;6.10;4.38;;;16.80;99.90;;;;;;4996295;28;20204;-68
2022/08/23 03:04:02;;;;;;;6.18;4.47;;;16.80;99.90;;;;;;4996503;28;20172;-68
2022/08/23 03:06:28;;;;;;;9.98;5.45;;;16.70;99.90;;;;;;5014271;28;20567;-66
2022/08/23 03:08:55;;;;;;;6.38;4.65;;;16.70;99.90;;;;;;5014221;28;20256;-65
2022/08/23 03:11:22;;;;;;;8.77;5.57;;;16.60;99.90;;;;;;4996223;28;20214;-66
2022/08/23 03:13:49;;;;;;;7.18;5.10;;;16.70;99.90;;;;;;5014225;28;20176;-65
2022/08/23 03:16:15;;;;;;;7.75;4.95;;;16.60;99.90;;;;;;4996310;28;20598;-66
2022/08/23 03:18:42;;;;;;;6.45;5.35;;;16.50;99.90;;;;;;5014517;28;20163;-65
2022/08/23 03:21:09;;;;;;;8.40;5.07;;;16.50;99.90;;;;;;5013958;28;20278;-66
2022/08/23 03:23:36;;;;;;;6.68;4.80;;;16.50;99.90;;;;;;5013661;28;20203;-66
2022/08/23 03:26:03;;;;;;;7.47;5.38;;;16.50;99.90;;;;;;5013855;28;20226;-65
2022/08/23 03:28:29;;;;;;;9.40;5.07;;;16.50;99.90;;;;;;5028958;28;20263;-66
2022/08/23 03:30:56;;;;;;;8.40;5.00;;;16.40;99.90;;;;;;5013890;28;20552;-65
2022/08/23 03:33:22;;;;;;;7.43;5.43;;;16.40;99.90;;;;;;5013613;28;20199;-65
2022/08/23 03:35:48;;;;;;;8.00;5.35;;;16.40;99.90;;;;;;5013829;28;20230;-66
2022/08/23 03:38:18;;;;;;;7.65;4.80;;;16.40;99.90;;;;;;4995816;28;20188;-65
2022/08/23 03:40:44;;;;;;;6.05;5.03;;;16.40;99.90;;;;;;5013889;28;20199;-66
2022/08/23 03:43:10;;;;;;;9.32;5.78;;;16.40;99.90;;;;;;5013611;28;20703;-66
2022/08/23 03:45:36;;;;;;;9.75;5.53;;;16.40;99.90;;;;;;4995924;28;20180;-66
2022/08/23 03:48:03;;;;;;;6.50;4.85;;;16.40;99.90;;;;;;4996042;28;20176;-65
2022/08/23 03:50:28;;;;;;;10.18;5.20;;;16.40;99.90;;;;;;4995884;28;20207;-65
2022/08/23 03:52:54;;;;;;;8.60;5.20;;;16.30;99.90;;;;;;4995718;28;20289;-66
2022/08/23 03:55:20;;;;;;;9.63;5.47;;;16.30;99.90;;;;;;5013567;28;20254;-66
2022/08/23 03:57:47;;;;;;;8.82;5.28;;;16.30;99.90;;;;;;5013549;28;20271;-65
2022/08/23 04:00:14;;;;;;;8.85;5.35;;;16.30;99.90;;;;;;4995703;28;20180;-66
2022/08/23 04:02:40;;;;;;;7.57;5.55;;;16.20;99.90;;;;;;5013274;28;20208;-66
2022/08/23 04:05:09;;;;;;;7.20;5.72;;;16.10;99.90;;;;;;5016090;28;20172;-65
2022/08/23 04:07:37;;;;;;;6.95;5.15;;;16.00;99.90;;;;;;5031816;28;20275;-66
2022/08/23 04:10:04;;;;;;;6.22;5.10;;;16.00;99.90;;;;;;5017523;28;20153;-65
2022/08/23 04:12:30;;;;;;;9.80;5.70;;;16.00;99.90;;;;;;5016829;28;20203;-65
2022/08/23 04:14:56;;;;;;;10.18;5.50;;;16.00;99.90;;;;;;4999189;28;20637;-65
2022/08/23 04:17:21;;;;;;;7.03;5.13;;;15.90;99.90;;;;;;5016825;28;20176;-66
2022/08/23 04:19:48;;;;;;;6.35;5.05;;;15.90;99.90;;;;;;5016714;28;20219;-65
2022/08/23 04:22:16;;;;;;;8.73;5.72;;;15.80;99.90;;;;;;5016814;28;20208;-65
2022/08/23 04:24:42;;;;;;;6.50;5.65;;;15.70;99.90;;;;;;5016437;28;20210;-66
2022/08/23 04:27:09;;;;;;;8.75;5.60;;;15.70;99.90;;;;;;5016524;28;20176;-65
2022/08/23 04:29:36;;;;;;;7.07;5.30;;;15.70;99.90;;;;;;5016562;28;20172;-65
2022/08/23 04:32:03;;;;;;;11.98;6.10;;;15.70;99.90;;;;;;4998810;28;20227;-66
2022/08/23 04:34:29;;;;;;;7.82;5.75;;;15.70;99.90;;;;;;5016993;28;20191;-66
2022/08/23 04:36:54;;;;;;;7.38;5.60;;;15.70;99.90;;;;;;5016610;28;20183;-66
2022/08/23 04:39:20;;;;;;;6.60;5.72;;;15.60;99.90;;;;;;5016299;28;20180;-66
2022/08/23 04:44:30;;;;;;;7.22;5.65;;;15.60;99.90;;;;;;5016667;28;20675;-66
2022/08/23 04:46:56;;;;;;;6.82;5.63;;;15.60;99.90;;;;;;5018166;28;20176;-66
2022/08/23 04:49:22;;;;;;;9.27;5.13;;;15.60;99.90;;;;;;5017868;28;20275;-66
2022/08/23 04:51:48;;;;;;;8.70;5.90;;;15.60;99.90;;;;;;5000034;28;20203;-66
2022/08/23 04:54:14;;;;;;;8.68;5.65;;;15.70;99.90;;;;;;4998879;28;20652;-67
2022/08/23 04:56:40;;;;;;;8.45;6.00;;;15.70;99.90;;;;;;5016894;28;20196;-67
2022/08/23 04:59:07;;;;;;;8.05;6.32;;;15.70;99.90;;;;;;5016660;28;20239;-66
2022/08/23 05:01:33;;;;;;;8.35;5.75;;;15.70;99.90;;;;;;5016495;28;20226;-67
2022/08/23 05:04:00;;;;;;;8.82;5.80;;;15.60;99.90;;;;;;5017069;28;20176;-66
2022/08/23 05:06:28;;;;;;;7.75;6.03;;;15.60;99.90;;;;;;5015680;28;20614;-67
2022/08/23 05:08:54;;;;;;;7.68;5.80;;;15.60;99.90;;;;;;5015797;28;20168;-67
2022/08/23 05:11:20;;;;;;;6.35;5.60;;;15.60;99.90;;;;;;5015970;28;20172;-67
2022/08/23 05:13:46;;;;;;;8.45;6.07;;;15.70;99.90;;;;;;4997976;28;20641;-67
2022/08/23 05:16:12;;;;;;;6.22;5.63;;;15.70;99.90;;;;;;5015529;28;20165;-67
2022/08/23 05:18:39;;;;;;;9.90;6.30;;;15.80;99.90;;;;;;4998196;28;20202;-66
2022/08/23 05:21:05;;;;;;;13.85;5.88;;;15.80;99.90;;;;;;5015774;28;20168;-67
2022/08/23 05:23:31;;;;;;;7.43;6.35;;;15.90;99.90;;;;;;5015147;28;20204;-67
2022/08/23 05:25:58;;;;;;;7.45;6.20;;;15.90;99.90;;;;;;5015365;28;20649;-67
2022/08/23 05:28:30;;;;;;;9.40;6.38;;;16.00;99.90;;;;;;4997845;28;20649;-67
2022/08/23 05:31:03;;;;;;;8.82;6.25;;;16.00;99.90;;;;;;4997743;28;20180;-66
2022/08/23 05:33:30;;;;;;;8.50;5.85;;;16.00;99.90;;;;;;4997526;28;20200;-66
2022/08/23 05:35:56;;;;;;;8.75;6.80;;;16.10;99.90;;;;;;5015082;28;20172;-67
2022/08/23 05:38:24;;;;;;;10.93;5.97;;;16.20;99.90;;;;;;5014820;28;20184;-67
2022/08/23 05:40:51;;;;;;;9.27;6.55;;;16.20;99.90;;;;;;5014938;28;20251;-67
2022/08/23 05:43:18;;;;;;;7.60;5.63;;;16.30;99.90;;;;;;5014812;28;20318;-66
2022/08/23 05:45:44;;;;;;;8.45;6.22;;;16.30;99.90;;;;;;5014881;28;20184;-67
2022/08/23 05:48:11;;;;;;;10.15;6.07;;;16.40;99.90;;;;;;5014837;28;20196;-68
2022/08/23 05:50:38;;;;;;;11.25;6.45;;;16.50;99.90;;;;;;5014696;28;20258;-66
2022/08/23 05:53:04;;;;;;;8.27;6.47;;;16.60;99.90;;;;;;5014507;28;20191;-67
2022/08/23 05:55:31;;;;;;;8.02;6.43;;;16.60;99.90;;;;;;5014685;28;20176;-67
2022/08/23 05:57:57;;;;;;;9.95;6.15;;;16.70;99.90;;;;;;5014642;28;20182;-66
2022/08/23 06:00:23;;;;;;;7.68;6.07;;;16.70;99.90;;;;;;5014772;28;20652;-67
2022/08/23 06:02:49;;;;;;;7.20;5.57;;;16.80;99.90;;;;;;5014548;28;20230;-67
2022/08/23 06:05:16;;;;;;;9.45;6.50;;;16.90;99.90;;;;;;4997044;28;20211;-67
2022/08/23 06:07:42;;;;;;;9.45;5.93;;;16.90;99.90;;;;;;5014454;28;20215;-68
2022/08/23 06:10:08;;;;;;;8.82;5.93;;;17.10;99.90;;;;;;5014310;28;20172;-68
2022/08/23 06:12:34;;;;;;;8.80;5.18;;;17.20;99.90;;;;;;5014359;28;20225;-68
2022/08/23 06:15:00;;;;;;;7.88;5.68;;;17.30;99.90;;;;;;5014587;28;20621;-66
2022/08/23 06:17:27;;;;;;;9.20;5.72;;;17.30;99.90;;;;;;5014650;28;20168;-66
2022/08/23 06:19:53;;;;;;;9.23;5.93;;;17.40;99.90;;;;;;5014510;28;20179;-66
2022/08/23 06:22:19;;;;;;;7.47;5.55;;;17.60;99.90;;;;;;5014233;28;20257;-66
2022/08/23 06:24:46;;;;;;;6.10;5.05;;;17.60;99.90;;;;;;5014091;28;20685;-66
2022/08/23 06:27:12;;;;;;;6.60;4.72;;;17.70;99.90;;;;;;5013800;28;20199;-66
2022/08/23 06:29:38;;;;;;;9.77;6.32;;;17.90;99.90;;;;;;5029771;28;20199;-66
2022/08/23 06:32:04;;;;;;;7.97;6.15;;;18.00;99.90;;;;;;5014119;28;20235;-66
2022/08/23 06:34:39;;;;;;;9.80;6.38;;;18.00;99.90;;;;;;4996649;28;20207;-66
2022/08/23 06:37:13;;;;;;;6.00;5.40;;;18.10;99.90;;;;;;5014979;28;20278;-66
2022/08/23 06:39:39;;;;;;;8.13;5.85;;;18.20;99.90;;;;;;5013817;28;20164;-66
2022/08/23 06:42:08;;;;;;;8.00;5.82;;;18.30;99.90;;;;;;5013737;28;20229;-66
2022/08/23 06:44:35;;;;;;;5.05;4.55;;;18.40;99.90;;;;;;5014189;28;20222;-66
2022/08/23 06:47:02;;;;;;;7.47;5.35;;;18.50;99.90;;;;;;5013960;28;20546;-66
2022/08/23 06:49:27;;;;;;;6.15;4.68;;;18.70;99.90;;;;;;5013751;28;20631;-66
2022/08/23 06:51:56;;;;;;;6.38;5.00;;;18.80;99.90;;;;;;5014089;28;20283;-66
2022/08/23 06:54:25;;;;;;;7.53;4.65;;;18.90;99.90;;;;;;5013541;28;20168;-66
2022/08/23 06:56:51;;;;;;;6.25;4.70;;;19.00;99.90;;;;;;5013737;28;20276;-66
2022/08/23 06:59:18;;;;;;;12.13;5.55;;;19.10;99.90;;;;;;5013808;28;20680;-66
2022/08/23 07:01:54;;;;;;;14.07;5.40;;;19.20;99.90;;;;;;5013802;28;20200;-66
2022/08/23 07:04:27;;;;;;;10.07;5.25;;;19.20;99.90;;;;;;5013639;28;20210;-66
2022/08/23 07:06:54;;;;;;;9.77;5.78;;;19.30;99.90;;;;;;5013914;28;20184;-66
2022/08/23 07:09:20;;;;;;;10.40;5.25;;;19.40;99.90;;;;;;5013431;28;20625;-66
2022/08/23 07:11:46;;;;;;;8.05;4.75;;;19.50;99.90;;;;;;5013689;28;20202;-66
2022/08/23 07:14:15;;;;;;;11.55;4.57;;;19.60;99.90;;;;;;4996040;28;20614;-66
2022/08/23 07:16:47;;;;;;;12.25;5.28;;;19.80;99.90;;;;;;5013939;28;20172;-66
2022/08/23 07:19:14;;;;;;;8.40;4.30;;;19.90;99.90;;;;;;4996042;28;20184;-66
2022/08/23 07:21:41;;;;;;;8.15;4.72;;;20.00;99.90;;;;;;5013599;28;20204;-66
2022/08/23 07:24:07;;;;;;;7.35;4.55;;;20.20;99.90;;;;;;5013368;28;20637;-66
2022/08/23 07:26:35;;;;;;;10.57;4.85;;;20.30;99.90;;;;;;5013497;28;20187;-66
2022/08/23 07:29:04;;;;;;;8.60;4.57;;;20.50;99.90;;;;;;5013799;28;20571;-66
2022/08/23 07:31:31;;;;;;;8.00;4.28;;;20.60;99.90;;;;;;4995873;28;20215;-66
2022/08/23 07:34:00;;;;;;;6.50;3.58;;;20.80;99.90;;;;;;5013812;28;20206;-66
2022/08/23 07:36:28;;;;;;;5.85;3.90;;;20.90;99.90;;;;;;5013314;28;20221;-66
2022/08/23 07:38:55;;;;;;;7.90;3.75;;;21.00;99.90;;;;;;5013909;28;20766;-66
2022/08/23 07:41:23;;;;;;;7.57;3.58;;;21.20;99.90;;;;;;5017175;28;20306;-66
2022/08/23 07:43:49;;;;;;;7.05;3.28;;;21.30;99.90;;;;;;5017701;28;20176;-66
2022/08/23 07:46:15;;;;;;;6.85;3.20;;;21.40;99.90;;;;;;5017769;28;20528;-66
2022/08/23 07:48:41;;;;;;;5.45;3.22;;;21.50;99.90;;;;;;5017395;28;20168;-66
2022/08/23 07:51:10;;;;;;;4.47;3.03;;;21.70;99.90;;;;;;5017171;28;20542;-66
2022/08/23 07:53:36;;;;;;;5.53;3.03;;;21.80;99.90;;;;;;5016802;28;20188;-66
2022/08/23 07:56:10;;;;;;;4.57;2.72;;;21.90;99.90;;;;;;5017221;28;20611;-66
2022/08/23 07:58:36;;;;;;;8.05;3.78;;;22.10;99.90;;;;;;5017238;28;20254;-66
2022/08/23 08:01:28;;;;;;;4.32;3.20;;;22.20;99.90;;;;;;5016893;28;20196;-66
2022/08/23 08:03:56;;;;;;;3.90;2.85;;;22.30;99.90;;;;;;5014563;28;20238;-66
2022/08/23 08:06:29;;;;;;;4.95;2.53;;;22.40;99.90;;;;;;5032030;28;20180;-66
2022/08/23 08:08:56;;;;;;;3.95;2.90;;;22.60;99.90;;;;;;5016644;28;20593;-66
2022/08/23 08:11:26;;;;;;;4.25;2.92;;;22.70;99.90;;;;;;4999314;28;20179;-66
2022/08/23 08:13:53;;;;;;;4.55;2.70;;;22.80;99.90;;;;;;5017212;28;20629;-66
2022/08/23 08:16:38;;;;;;;4.93;2.85;;;22.90;99.90;;;;;;5017037;28;20225;-66
2022/08/23 08:19:06;;;;;;;5.53;2.83;;;23.10;99.90;;;;;;4999176;28;20175;-66
2022/08/23 08:21:33;;;;;;;5.32;2.90;;;23.20;99.90;;;;;;5031825;28;20265;-66
2022/08/23 08:23:59;;;;;;;3.90;2.70;;;23.40;99.90;;;;;;5016632;28;20187;-66
2022/08/23 08:26:26;;;;;;;7.82;3.17;;;23.50;99.90;;;;;;5016928;28;20164;-66
2022/08/23 08:28:55;;;;;;;7.65;3.15;;;23.60;99.90;;;;;;5016768;28;20229;-67
2022/08/23 08:31:21;;;;;;;4.82;3.20;;;23.70;99.90;;;;;;5016581;28;20172;-67
2022/08/23 08:33:47;;;;;;;4.45;3.10;;;23.80;99.90;;;;;;5016392;28;20191;-68
2022/08/23 08:36:34;;;;;;;4.30;3.10;;;23.90;99.90;;;;;;4999562;28;20172;-68
2022/08/23 08:39:01;;;;;;;4.95;2.70;;;24.10;99.90;;;;;;5016322;28;20156;-67
2022/08/23 08:41:53;;;;;;;6.65;2.90;;;24.20;99.90;;;;;;5016444;28;20242;-67
2022/08/23 08:44:28;;;;;;;5.13;3.10;;;24.30;99.90;;;;;;5031628;28;20184;-68
2022/08/23 08:46:58;;;;;;;6.00;3.10;;;24.40;99.90;;;;;;5016697;28;20156;-67
2022/08/23 08:49:31;;;;;;;5.72;3.33;;;24.50;99.90;;;;;;5016188;28;20310;-67
2022/08/23 08:52:45;;;;;;;4.55;2.90;;;24.60;99.90;;;;;;5016271;28;20197;-68
2022/08/23 08:55:21;;;;;;;5.70;3.28;;;24.80;99.90;;;;;;4985474;28;20199;-67
2022/08/23 08:57:48;;;;;;;3.70;3.10;;;24.90;99.90;;;;;;5016062;28;20191;-68
2022/08/23 09:00:20;;;;;;;5.65;3.00;;;25.00;99.90;;;;;;5016412;28;20760;-68
2022/08/23 09:02:46;;;;;;;6.07;3.08;;;25.20;99.90;;;;;;4998358;28;20242;-68
2022/08/23 09:05:21;;;;;;;5.18;3.10;;;25.20;99.90;;;;;;5015987;28;20536;-68
2022/08/23 09:08:13;;;;;;;4.55;2.90;;;25.40;99.90;;;;;;5031244;28;20238;-68
2022/08/23 09:10:55;;;;;;;6.15;3.20;;;25.50;99.90;;;;;;5015689;28;20164;-68
2022/08/23 09:13:27;;;;;;;4.50;2.70;;;25.60;99.90;;;;;;5016295;28;20227;-68
2022/08/23 09:16:15;;;;;;;4.18;2.70;;;25.80;99.90;;;;;;5015849;28;20188;-68
2022/08/23 09:18:41;;;;;;;6.57;3.05;;;26.00;99.90;;;;;;5031027;28;20217;-68
2022/08/23 09:21:08;;;;;;;6.05;2.95;;;26.10;99.90;;;;;;5016053;28;20180;-68
2022/08/23 09:23:43;;;;;;;6.68;3.13;;;26.20;99.90;;;;;;5016026;28;20206;-68
2022/08/23 09:26:26;;;;;;;5.97;2.92;;;26.30;99.90;;;;;;5015906;28;20214;-67
2022/08/23 09:29:17;;;;;;;4.63;2.92;;;26.40;99.90;;;;;;4998166;28;20208;-68
2022/08/23 09:32:25;;;;;;;5.03;2.75;;;26.50;99.90;;;;;;5015466;28;20179;-67
2022/08/23 09:34:51;;;;;;;8.13;3.15;;;26.60;99.90;;;;;;4998057;28;20241;-68
2022/08/23 09:37:23;;;;;;;7.00;3.00;;;26.80;99.90;;;;;;5015575;28;20184;-68
2022/08/23 09:40:11;;;;;;;4.13;2.72;;;26.90;99.90;;;;;;5015573;28;20633;-68
2022/08/23 09:42:39;;;;;;;9.15;2.92;;;27.00;99.90;;;;;;5015467;28;20215;-68
2022/08/23 09:45:23;;;;;;;6.53;3.15;;;26.90;99.90;;;;;;5015716;28;20207;-68
2022/08/23 09:47:49;;;;;;;4.97;2.90;;;27.00;99.90;;;;;;5015507;28;20164;-68
2022/08/23 09:50:23;;;;;;;3.70;3.03;;;27.10;99.90;;;;;;5015292;28;20178;-68
2022/08/23 09:52:53;;;;;;;5.07;3.15;;;27.20;99.90;;;;;;4997437;28;20245;-68
2022/08/23 09:55:47;;;;;;;5.50;2.97;;;27.30;99.90;;;;;;5014942;28;20167;-68
2022/08/23 09:58:57;;;;;;;5.22;3.20;;;27.30;99.90;;;;;;5015322;28;20172;-67
2022/08/23 10:01:29;;;;;;;5.88;3.13;;;27.30;99.90;;;;;;4954692;28;20244;-68
2022/08/23 10:04:13;;;;;;;4.47;2.90;;;27.30;99.90;;;;;;5005002;28;20184;-67
2022/08/23 10:06:42;;;;;;;7.45;3.00;;;27.30;99.90;;;;;;4997181;28;20282;-68
2022/08/23 10:09:20;;;;;;;8.02;3.55;;;27.30;99.90;;;;;;5014560;28;20180;-68
2022/08/23 10:11:45;;;;;;;3.33;2.70;;;27.40;99.90;;;;;;5014927;28;20192;-68
2022/08/23 10:14:16;;;;;;;4.80;3.10;;;27.40;99.90;;;;;;5015294;28;20624;-68
2022/08/23 10:16:42;;;;;;;8.73;3.65;;;27.50;99.90;;;;;;5030401;28;20202;-68
2022/08/23 10:19:30;;;;;;;7.05;3.08;;;27.50;99.90;;;;;;5014629;28;20664;-68
2022/08/23 10:22:18;;;;;;;4.30;3.08;;;27.50;99.90;;;;;;5014471;28;20215;-68
2022/08/23 10:24:46;;;;;;;6.28;2.72;;;27.60;99.90;;;;;;5014502;28;20160;-68
2022/08/23 10:30:47;;;;;;;4.85;2.58;;;27.70;99.90;;;;;;4954524;29;20603;-69
2022/08/23 10:33:28;;;;;;;5.50;2.58;;;27.80;99.90;;;;;;4954087;28;20202;-68
2022/08/23 10:36:13;;;;;;;7.97;3.25;;;27.80;99.90;;;;;;5002048;28;20195;-68
2022/08/23 10:38:48;;;;;;;6.43;2.83;;;27.90;99.90;;;;;;5014224;28;20171;-68
2022/08/23 10:41:32;;;;;;;8.55;3.10;;;27.90;99.90;;;;;;5014556;28;20191;-68
2022/08/23 10:44:10;;;;;;;8.15;3.17;;;27.90;99.90;;;;;;4996625;28;20172;-68
2022/08/23 10:46:47;;;;;;;5.20;2.58;;;28.00;99.90;;;;;;5014001;28;20163;-68
2022/08/23 10:49:15;;;;;;;3.85;2.92;;;28.10;99.90;;;;;;4996499;28;20164;-68
2022/08/23 10:51:46;;;;;;;6.65;3.10;;;28.10;99.90;;;;;;5014087;28;20246;-68
2022/08/23 10:54:58;;;;;;;7.88;3.40;;;28.20;99.90;;;;;;5014042;28;20164;-68
2022/08/23 10:57:31;;;;;;;9.10;3.30;;;28.30;99.90;;;;;;5013903;28;20274;-68
2022/08/23 10:59:58;;;;;;;6.65;3.10;;;28.30;99.90;;;;;;5014167;28;20179;-68
2022/08/23 11:02:55;;;;;;;9.38;3.53;;;28.30;99.90;;;;;;5014126;28;20713;-68
2022/08/23 11:05:25;;;;;;;4.78;3.15;;;28.40;99.90;;;;;;4996385;28;20183;-68
2022/08/23 11:08:08;;;;;;;4.45;2.78;;;28.50;99.90;;;;;;5014379;28;20183;-68
2022/08/23 11:10:40;;;;;;;7.10;3.08;;;28.70;99.90;;;;;;5030271;28;20170;-68
2022/08/23 11:13:11;;;;;;;5.78;3.10;;;28.80;99.90;;;;;;5015823;28;20204;-68
2022/08/23 11:15:42;;;;;;;4.00;2.78;;;28.80;99.90;;;;;;5015169;28;20188;-68
2022/08/23 11:18:28;;;;;;;6.32;2.67;;;28.80;99.90;;;;;;5014277;28;20194;-68
2022/08/23 11:21:08;;;;;;;7.20;2.78;;;29.00;99.90;;;;;;5014506;28;20164;-68
2022/08/23 11:23:37;;;;;;;4.72;2.95;;;29.30;99.90;;;;;;5014347;28;20249;-68
2022/08/23 11:26:06;;;;;;;6.20;2.72;;;29.50;99.90;;;;;;5014067;28;20187;-68
2022/08/23 11:28:45;;;;;;;4.47;2.55;;;29.70;99.90;;;;;;5014482;28;20528;-68
2022/08/23 11:31:11;;;;;;;4.95;2.95;;;30.00;99.90;;;;;;4996681;28;20164;-68
2022/08/23 11:33:45;;;;;;;7.10;2.90;;;29.80;99.90;;;;;;5014139;28;20594;-68
2022/08/23 11:36:23;;;;;;;5.43;2.80;;;29.80;99.90;;;;;;5013685;28;20198;-68
2022/08/23 11:38:49;;;;;;;7.55;3.00;;;29.70;99.90;;;;;;5013299;28;20660;-68
2022/08/23 11:41:23;;;;;;;6.20;2.90;;;29.40;99.90;;;;;;5013512;28;20176;-68
2022/08/23 11:44:12;;;;;;;3.75;2.63;;;29.30;99.90;;;;;;4996016;28;20618;-68
2022/08/23 11:46:50;;;;;;;5.97;2.75;;;29.40;99.90;;;;;;4984802;28;20195;-68
2022/08/23 11:49:28;;;;;;;5.28;2.60;;;29.30;99.90;;;;;;5013764;28;20179;-68
2022/08/23 11:52:24;;;;;;;7.07;2.92;;;29.20;99.90;;;;;;4995995;28;20298;-68
2022/08/23 11:55:17;;;;;;;6.07;2.97;;;28.90;99.90;;;;;;5028593;28;20259;-68
2022/08/23 11:57:58;;;;;;;3.08;2.58;;;28.80;99.90;;;;;;5013213;28;20278;-68
2022/08/23 12:00:29;;;;;;;4.80;2.70;;;28.70;99.90;;;;;;4995657;28;20183;-68
2022/08/23 12:03:03;;;;;;;5.70;2.80;;;28.60;99.90;;;;;;5028370;28;20212;-68
2022/08/23 12:05:41;;;;;;;4.65;3.00;;;28.70;99.90;;;;;;5028936;28;20186;-68
2022/08/23 12:08:07;;;;;;;8.02;2.80;;;28.70;99.90;;;;;;5013558;28;20183;-68
2022/08/23 12:10:42;;;;;;;5.55;2.83;;;28.80;99.90;;;;;;5013646;28;20183;-66
2022/08/23 12:13:20;;;;;;;6.03;2.78;;;29.00;99.90;;;;;;5013571;28;20218;-68
2022/08/23 12:16:12;;;;;;;2.95;2.67;;;29.20;99.90;;;;;;4995736;28;20234;-68
2022/08/23 12:18:48;;;;;;;5.18;2.63;;;29.30;99.90;;;;;;4996325;28;20180;-68
2022/08/23 12:21:30;;;;;;;8.38;2.80;;;29.60;99.90;;;;;;5013815;28;20520;-68
2022/08/23 12:24:00;;;;;;;4.57;2.50;;;29.80;99.90;;;;;;5013435;28;20554;-68
2022/08/23 12:26:38;;;;;;;5.63;2.60;;;29.70;99.90;;;;;;5015804;28;20649;-68
2022/08/23 12:29:20;;;;;;;6.15;2.83;;;30.00;99.90;;;;;;5016611;28;20228;-68
2022/08/23 12:31:58;;;;;;;9.70;2.80;;;30.20;99.90;;;;;;5016397;28;20164;-68
2022/08/23 12:34:39;;;;;;;7.63;3.08;;;30.40;99.90;;;;;;5016716;28;20156;-68
2022/08/23 12:37:31;;;;;;;6.28;2.85;;;30.60;99.90;;;;;;4999473;28;20187;-68
2022/08/23 12:40:00;;;;;;;4.00;2.58;;;30.70;99.90;;;;;;5016745;28;20183;-68
2022/08/23 12:42:33;;;;;;;6.15;2.67;;;30.60;99.90;;;;;;5016727;28;20754;-68
2022/08/23 12:45:07;;;;;;;2.63;2.10;;;30.60;99.90;;;;;;5016809;28;20164;-68
2022/08/23 12:47:34;;;;;;;4.82;2.83;;;30.80;99.90;;;;;;5017151;28;20198;-68
2022/08/23 12:50:00;;;;;;;3.08;2.30;;;30.80;99.90;;;;;;5017037;28;20190;-68
2022/08/23 12:52:30;;;;;;;4.85;2.65;;;30.90;99.90;;;;;;5016686;28;20191;-68
2022/08/23 12:54:57;;;;;;;5.22;2.38;;;30.80;99.90;;;;;;5031956;28;20165;-69
2022/08/23 12:57:36;;;;;;;4.72;2.65;;;30.90;99.90;;;;;;5016588;28;20187;-68
2022/08/23 13:00:01;;;;;;;4.28;2.95;;;30.70;99.90;;;;;;5016997;28;20195;-68
2022/08/23 13:02:31;;;;;;;6.25;3.20;;;30.40;99.90;;;;;;5016282;28;20207;-68
2022/08/23 13:05:08;;;;;;;3.40;2.50;;;30.10;99.90;;;;;;5031526;28;20188;-68
2022/08/23 13:07:35;;;;;;;4.88;2.50;;;30.00;99.90;;;;;;5016466;28;20179;-68
2022/08/23 13:10:02;;;;;;;7.10;2.67;;;29.80;99.90;;;;;;5015480;28;20176;-67
2022/08/23 13:12:28;;;;;;;5.72;2.30;;;30.00;99.90;;;;;;4998130;28;20257;-68
2022/08/23 13:14:54;;;;;;;7.57;3.00;;;30.50;99.90;;;;;;4998071;28;20732;-67
2022/08/23 13:17:26;;;;;;;6.38;2.58;;;31.00;99.90;;;;;;4998212;28;20549;-67